Time;durP1;ratioP1;P1;durP2;ratioP2;P2;SDS_P1;SDS_P2;PMS_P1;PMS_P2;Temp;Humidity;BMP_temperature;BMP_pressure;BME280_temperature;BME280_humidity;BME280_pressure;Samples;Min_cycle;Max_cycle;Signal;HPM_P1;HPM_P2
2023/09/01 00:01:06;;;;;;;13.50;8.48;;;10.80;99.90;;;;;;5038810;28;20052;-79
2023/09/01 00:03:32;;;;;;;14.40;8.10;;;10.80;99.90;;;;;;5028628;28;20376;-79
2023/09/01 00:06:02;;;;;;;14.70;6.60;;;10.70;99.90;;;;;;5030211;28;20025;-77
2023/09/01 00:08:29;;;;;;;10.23;6.20;;;10.70;99.90;;;;;;5030406;28;20022;-77
2023/09/01 00:10:54;;;;;;;12.98;5.90;;;10.60;99.90;;;;;;5028817;28;20048;-77
2023/09/01 00:13:20;;;;;;;9.85;5.60;;;10.50;99.90;;;;;;5028939;28;20021;-79
2023/09/01 00:15:45;;;;;;;5.65;4.65;;;10.40;99.90;;;;;;5028296;28;20524;-77
2023/09/01 00:18:11;;;;;;;7.22;4.53;;;10.30;99.90;;;;;;5029553;28;20047;-77
2023/09/01 00:20:37;;;;;;;5.20;4.25;;;10.20;99.90;;;;;;5028618;28;20022;-77
2023/09/01 00:23:06;;;;;;;9.32;5.18;;;10.20;99.90;;;;;;5029680;28;20532;-77
2023/09/01 00:25:31;;;;;;;13.05;7.63;;;10.10;99.90;;;;;;5030259;28;20360;-79
2023/09/01 00:27:57;;;;;;;12.52;8.15;;;10.10;99.90;;;;;;5028842;28;20032;-79
2023/09/01 00:30:23;;;;;;;11.90;7.55;;;10.10;99.90;;;;;;5029293;28;20026;-78
2023/09/01 00:32:48;;;;;;;11.45;7.03;;;10.10;99.90;;;;;;5028239;28;20022;-79
2023/09/01 00:35:15;;;;;;;10.93;6.90;;;10.10;99.90;;;;;;5029406;28;20033;-79
2023/09/01 00:37:40;;;;;;;14.68;7.68;;;10.10;99.90;;;;;;5028459;28;20397;-77
2023/09/01 00:40:07;;;;;;;10.43;6.82;;;10.10;99.90;;;;;;5029469;28;20029;-79
2023/09/01 00:42:32;;;;;;;13.30;6.57;;;10.00;99.90;;;;;;5028031;28;20145;-79
2023/09/01 00:44:58;;;;;;;9.52;6.70;;;10.00;99.90;;;;;;5028168;28;20037;-79
2023/09/01 00:47:24;;;;;;;11.57;8.10;;;9.90;99.90;;;;;;5028086;28;20022;-77
2023/09/01 00:49:49;;;;;;;15.95;8.85;;;10.00;99.90;;;;;;5029024;28;20026;-79
2023/09/01 00:52:15;;;;;;;9.52;7.28;;;10.00;99.90;;;;;;5029460;28;20528;-77
2023/09/01 00:54:41;;;;;;;11.23;8.05;;;10.00;99.90;;;;;;5028133;28;20030;-77
2023/09/01 00:57:06;;;;;;;11.13;8.82;;;10.00;99.90;;;;;;5038963;28;20032;-79
2023/09/01 00:59:32;;;;;;;11.77;8.48;;;10.00;99.90;;;;;;5026340;28;20034;-77
2023/09/01 01:01:58;;;;;;;9.00;6.95;;;10.00;99.90;;;;;;5027658;28;20387;-77
2023/09/01 01:04:24;;;;;;;11.18;8.40;;;10.00;99.90;;;;;;5025434;28;20028;-77
2023/09/01 01:07:20;;;;;;;11.00;8.63;;;10.00;99.90;;;;;;5029522;28;20608;-77
2023/09/01 01:09:57;;;;;;;10.95;6.78;;;10.00;99.90;;;;;;5035974;28;20021;-79
2023/09/01 01:12:32;;;;;;;8.85;6.88;;;10.10;99.90;;;;;;5030846;28;20041;-77
2023/09/01 01:15:01;;;;;;;9.18;7.03;;;10.10;99.90;;;;;;5032176;28;20025;-79
2023/09/01 01:17:28;;;;;;;11.52;8.25;;;10.00;99.90;;;;;;5032317;28;20123;-77
2023/09/01 01:19:55;;;;;;;11.23;8.20;;;10.00;99.90;;;;;;5032924;28;20057;-77
2023/09/01 01:22:46;;;;;;;7.47;6.70;;;10.10;99.90;;;;;;5043608;28;20022;-77
2023/09/01 01:25:13;;;;;;;8.82;5.53;;;10.10;99.90;;;;;;5028067;28;20026;-79
2023/09/01 01:27:41;;;;;;;8.52;6.07;;;10.10;99.90;;;;;;5032801;28;20091;-79
2023/09/01 01:30:07;;;;;;;8.88;6.90;;;10.10;99.90;;;;;;5031104;28;20018;-77
2023/09/01 01:32:34;;;;;;;10.25;7.63;;;10.10;99.90;;;;;;5031024;28;20029;-78
2023/09/01 01:35:24;;;;;;;9.23;6.53;;;10.20;99.90;;;;;;5030987;28;20017;-77
2023/09/01 01:37:49;;;;;;;8.25;6.65;;;10.20;99.90;;;;;;5032190;28;20118;-77
2023/09/01 01:40:17;;;;;;;7.75;6.55;;;10.20;99.90;;;;;;5030645;28;20486;-79
2023/09/01 01:42:46;;;;;;;8.45;6.32;;;10.20;99.90;;;;;;5031236;28;20017;-78
2023/09/01 01:45:16;;;;;;;10.40;8.30;;;10.30;99.90;;;;;;5032958;28;20018;-78
2023/09/01 01:47:42;;;;;;;8.73;6.20;;;10.30;99.90;;;;;;5031834;28;20029;-79
2023/09/01 01:50:08;;;;;;;10.13;6.22;;;10.40;99.90;;;;;;5030535;28;20032;-77
2023/09/01 01:52:33;;;;;;;10.45;6.20;;;10.40;99.90;;;;;;5031655;28;20429;-78
2023/09/01 01:54:59;;;;;;;7.20;6.05;;;10.40;99.90;;;;;;5030494;28;20382;-78
2023/09/01 01:57:24;;;;;;;10.75;6.82;;;10.40;99.90;;;;;;5030763;28;20486;-78
2023/09/01 01:59:50;;;;;;;7.55;5.47;;;10.40;99.90;;;;;;5017238;28;20034;-78
2023/09/01 02:02:16;;;;;;;7.05;6.30;;;10.40;99.90;;;;;;5030457;28;20029;-79
2023/09/01 02:04:41;;;;;;;7.13;5.97;;;10.30;99.90;;;;;;5031543;28;20031;-78
2023/09/01 02:07:07;;;;;;;8.80;5.88;;;10.30;99.90;;;;;;5031555;28;20022;-77
2023/09/01 02:09:33;;;;;;;7.47;6.15;;;10.30;99.90;;;;;;5044332;28;20033;-79
2023/09/01 02:11:59;;;;;;;10.38;6.93;;;10.30;99.90;;;;;;5030245;28;20090;-78
2023/09/01 02:14:24;;;;;;;13.43;7.47;;;10.30;99.90;;;;;;5029892;28;20359;-79
2023/09/01 02:16:50;;;;;;;11.23;6.28;;;10.30;99.90;;;;;;5030110;28;20022;-77
2023/09/01 02:19:16;;;;;;;9.45;6.88;;;10.30;99.90;;;;;;5030566;28;20040;-77
2023/09/01 02:21:41;;;;;;;11.65;7.20;;;10.20;99.90;;;;;;5038198;28;20026;-78
2023/09/01 02:24:07;;;;;;;11.43;7.65;;;10.20;99.90;;;;;;5029831;28;20471;-79
2023/09/01 02:26:32;;;;;;;7.85;6.80;;;10.20;99.90;;;;;;5029920;28;20017;-77
2023/09/01 02:28:58;;;;;;;14.45;8.32;;;10.20;99.90;;;;;;5029830;28;20029;-78
2023/09/01 02:31:24;;;;;;;8.45;6.85;;;10.20;99.90;;;;;;5029837;28;20542;-77
2023/09/01 02:33:50;;;;;;;11.35;7.38;;;10.10;99.90;;;;;;5049134;28;20104;-78
2023/09/01 02:36:32;;;;;;;6.97;6.28;;;10.10;99.90;;;;;;5036431;28;20133;-79
2023/09/01 02:38:58;;;;;;;8.88;7.40;;;10.00;99.90;;;;;;5024223;28;20018;-77
2023/09/01 02:41:24;;;;;;;8.63;7.03;;;9.90;99.90;;;;;;5030993;28;20032;-77
2023/09/01 02:43:51;;;;;;;10.82;6.97;;;9.90;99.90;;;;;;5029965;28;20489;-78
2023/09/01 02:46:16;;;;;;;8.00;6.43;;;9.90;99.90;;;;;;5026130;28;20146;-77
2023/09/01 02:48:42;;;;;;;9.15;6.78;;;9.90;99.90;;;;;;5013683;28;20097;-77
2023/09/01 02:51:08;;;;;;;8.63;6.35;;;9.90;99.90;;;;;;5031469;28;20030;-77
2023/09/01 02:53:34;;;;;;;8.10;6.05;;;9.90;99.90;;;;;;5021688;28;20217;-79
2023/09/01 02:56:01;;;;;;;9.15;6.60;;;9.80;99.90;;;;;;5024654;28;20101;-77
2023/09/01 02:58:26;;;;;;;11.40;6.80;;;9.80;99.90;;;;;;5050235;28;20423;-79
2023/09/01 03:00:52;;;;;;;10.10;7.63;;;9.80;99.90;;;;;;5048122;28;20170;-77
2023/09/01 03:03:22;;;;;;;10.05;6.47;;;9.80;99.90;;;;;;5040422;28;20110;-79
2023/09/01 03:05:49;;;;;;;7.22;5.53;;;9.70;99.90;;;;;;5031010;28;20021;-78
2023/09/01 03:08:17;;;;;;;8.02;6.13;;;9.70;99.90;;;;;;5042435;28;20466;-77
2023/09/01 03:10:42;;;;;;;9.50;6.00;;;9.70;99.90;;;;;;5030658;28;20030;-77
2023/09/01 03:13:08;;;;;;;8.75;6.53;;;9.70;99.90;;;;;;5030370;28;20024;-77
2023/09/01 03:15:34;;;;;;;6.70;5.30;;;9.70;99.90;;;;;;5029217;28;20413;-79
2023/09/01 03:17:59;;;;;;;4.22;3.83;;;9.60;99.90;;;;;;5029313;28;20442;-78
2023/09/01 03:20:25;;;;;;;3.28;2.88;;;9.50;99.90;;;;;;5026310;28;20029;-77
2023/09/01 03:22:51;;;;;;;3.72;3.30;;;9.40;99.90;;;;;;5022182;28;20039;-79
2023/09/01 03:25:17;;;;;;;5.85;4.03;;;9.30;99.90;;;;;;5045405;28;20040;-77
2023/09/01 03:27:43;;;;;;;6.00;3.80;;;9.30;99.90;;;;;;5030664;28;20426;-77
2023/09/01 03:30:10;;;;;;;5.35;4.78;;;9.30;99.90;;;;;;5029591;28;20463;-77
2023/09/01 03:32:37;;;;;;;5.25;4.47;;;9.20;99.90;;;;;;5029114;28;20053;-77
2023/09/01 03:35:03;;;;;;;5.78;4.60;;;9.20;99.90;;;;;;5030662;28;20382;-79
2023/09/01 03:37:29;;;;;;;4.45;4.05;;;9.20;99.90;;;;;;5028832;28;20443;-77
2023/09/01 03:39:55;;;;;;;6.72;4.57;;;9.10;99.90;;;;;;5030816;28;20017;-77
2023/09/01 03:42:20;;;;;;;4.65;3.75;;;9.10;99.90;;;;;;5028972;28;20376;-77
2023/09/01 03:44:46;;;;;;;4.72;4.32;;;9.10;99.90;;;;;;5029048;28;20108;-78
2023/09/01 03:47:12;;;;;;;5.00;4.07;;;9.10;99.90;;;;;;5028825;28;20028;-78
2023/09/01 03:49:38;;;;;;;9.95;7.05;;;9.00;99.90;;;;;;5031187;28;20030;-79
2023/09/01 03:52:04;;;;;;;8.07;6.90;;;9.00;99.90;;;;;;5029078;28;20091;-77
2023/09/01 03:54:29;;;;;;;9.90;7.85;;;9.00;99.90;;;;;;5027577;28;20014;-77
2023/09/01 03:56:55;;;;;;;14.80;8.25;;;9.00;99.90;;;;;;5019826;28;20025;-77
2023/09/01 03:59:21;;;;;;;12.27;9.63;;;9.00;99.90;;;;;;5030357;28;20021;-78
2023/09/01 04:01:47;;;;;;;11.23;8.48;;;9.00;99.90;;;;;;5028516;28;20474;-77
2023/09/01 04:04:14;;;;;;;9.15;7.43;;;9.00;99.90;;;;;;5030795;28;20044;-77
2023/09/01 04:06:40;;;;;;;8.55;5.55;;;9.00;99.90;;;;;;5037987;28;20105;-77
2023/09/01 04:09:06;;;;;;;6.05;4.82;;;8.90;99.90;;;;;;5039058;28;20026;-79
2023/09/01 04:11:32;;;;;;;8.00;4.63;;;8.80;99.90;;;;;;5041575;28;20491;-77
2023/09/01 04:13:58;;;;;;;8.30;4.53;;;8.80;99.90;;;;;;5010378;28;20010;-77
2023/09/01 04:16:24;;;;;;;5.78;4.78;;;8.70;99.90;;;;;;5023172;28;20100;-77
2023/09/01 04:18:50;;;;;;;6.78;5.45;;;8.70;99.90;;;;;;5028637;28;20022;-78
2023/09/01 04:21:16;;;;;;;8.07;5.03;;;8.70;99.90;;;;;;5029448;28;20026;-78
2023/09/01 04:23:41;;;;;;;5.57;4.93;;;8.70;99.90;;;;;;5047848;28;20021;-77
2023/09/01 04:26:07;;;;;;;7.82;5.63;;;8.70;99.90;;;;;;5034910;28;20029;-77
2023/09/01 04:28:33;;;;;;;6.80;5.07;;;8.70;99.90;;;;;;5029405;28;20070;-79
2023/09/01 04:31:01;;;;;;;6.22;5.50;;;8.70;99.90;;;;;;5040948;28;20033;-77
2023/09/01 04:33:27;;;;;;;6.60;6.00;;;8.70;99.90;;;;;;5042258;28;20109;-78
2023/09/01 04:35:59;;;;;;;9.13;5.60;;;8.80;99.90;;;;;;5027837;28;20054;-78
2023/09/01 04:38:25;;;;;;;8.45;5.90;;;8.80;99.90;;;;;;5029429;28;20022;-78
2023/09/01 04:40:58;;;;;;;7.65;6.47;;;8.80;99.90;;;;;;5027871;28;20026;-78
2023/09/01 04:43:27;;;;;;;7.20;5.63;;;8.80;99.90;;;;;;5034791;28;20228;-79
2023/09/01 04:45:53;;;;;;;7.30;5.93;;;8.80;99.90;;;;;;5033174;28;20068;-80
2023/09/01 04:48:20;;;;;;;8.48;7.30;;;8.90;99.90;;;;;;5032721;28;20025;-78
2023/09/01 04:50:46;;;;;;;6.28;4.97;;;8.90;99.90;;;;;;5034354;28;20127;-79
2023/09/01 04:53:12;;;;;;;13.20;7.30;;;9.10;99.90;;;;;;5028535;28;20109;-78
2023/09/01 04:55:37;;;;;;;9.55;6.60;;;9.10;99.90;;;;;;5016228;28;20086;-78
2023/09/01 04:58:03;;;;;;;11.95;6.45;;;9.20;99.90;;;;;;5043251;28;20021;-78
2023/09/01 05:00:28;;;;;;;10.73;7.68;;;9.30;99.90;;;;;;5045797;28;20440;-78
2023/09/01 05:02:54;;;;;;;12.23;7.18;;;9.40;99.90;;;;;;5038325;28;20099;-78
2023/09/01 05:05:20;;;;;;;11.85;8.52;;;9.50;99.90;;;;;;5045790;28;20021;-79
2023/09/01 05:07:46;;;;;;;9.65;6.78;;;9.60;99.90;;;;;;5037975;28;20440;-79
2023/09/01 05:10:11;;;;;;;8.50;7.20;;;9.70;99.90;;;;;;5031630;28;20511;-79
2023/09/01 05:12:37;;;;;;;10.45;8.27;;;9.80;99.90;;;;;;5031171;28;20111;-79
2023/09/01 05:15:04;;;;;;;9.73;6.82;;;9.90;99.90;;;;;;5028038;28;20527;-80
2023/09/01 05:17:30;;;;;;;12.13;7.68;;;10.00;99.90;;;;;;5039175;28;20029;-79
2023/09/01 05:19:57;;;;;;;12.25;8.95;;;10.10;99.90;;;;;;5039382;28;20428;-79
2023/09/01 05:22:23;;;;;;;13.30;8.32;;;10.30;99.90;;;;;;5031000;28;20061;-78
2023/09/01 05:24:49;;;;;;;9.70;7.22;;;10.40;99.90;;;;;;5030376;28;20057;-78
2023/09/01 05:27:18;;;;;;;11.30;7.68;;;10.60;99.90;;;;;;5042351;28;20022;-79
2023/09/01 05:29:44;;;;;;;12.35;7.88;;;10.70;99.90;;;;;;5029042;28;20468;-79
2023/09/01 05:32:10;;;;;;;8.93;5.97;;;10.80;99.90;;;;;;5026873;28;20045;-79
2023/09/01 05:34:35;;;;;;;12.38;7.55;;;11.00;99.90;;;;;;5011855;28;20058;-79
2023/09/01 05:37:01;;;;;;;13.52;7.47;;;11.10;99.90;;;;;;5026460;28;20045;-78
2023/09/01 05:39:28;;;;;;;9.75;6.90;;;11.20;99.90;;;;;;5030504;28;20029;-78
2023/09/01 05:41:53;;;;;;;11.00;7.20;;;11.40;99.90;;;;;;5033004;28;20116;-79
2023/09/01 05:44:20;;;;;;;8.77;6.47;;;11.50;99.90;;;;;;5045843;28;20097;-77
2023/09/01 05:46:45;;;;;;;12.05;7.22;;;11.70;99.90;;;;;;5034197;28;20021;-77
2023/09/01 05:49:11;;;;;;;12.93;7.97;;;11.80;99.90;;;;;;5025133;28;20383;-78
2023/09/01 05:51:36;;;;;;;10.73;8.48;;;12.00;99.90;;;;;;5029288;28;20032;-78
2023/09/01 05:54:02;;;;;;;12.60;8.40;;;12.10;99.90;;;;;;5023696;28;20048;-78
2023/09/01 05:56:28;;;;;;;14.65;9.05;;;12.30;99.90;;;;;;5027711;28;20025;-78
2023/09/01 05:58:54;;;;;;;13.82;8.68;;;12.40;99.90;;;;;;5046919;28;20056;-78
2023/09/01 06:01:19;;;;;;;10.80;8.93;;;12.60;99.90;;;;;;5036390;28;20532;-78
2023/09/01 06:03:45;;;;;;;15.30;9.35;;;12.70;99.90;;;;;;5035266;28;20050;-80
2023/09/01 06:06:11;;;;;;;11.00;8.18;;;12.80;99.90;;;;;;5028421;28;20025;-79
2023/09/01 06:08:36;;;;;;;11.80;7.57;;;12.90;99.90;;;;;;5040944;28;20435;-80
2023/09/01 06:11:08;;;;;;;10.40;6.90;;;13.10;99.90;;;;;;5037910;28;20050;-78
2023/09/01 06:13:34;;;;;;;12.00;7.40;;;13.20;99.90;;;;;;5033519;28;20025;-78
2023/09/01 06:16:03;;;;;;;9.02;6.60;;;13.40;99.90;;;;;;5038720;28;20037;-78
2023/09/01 06:18:29;;;;;;;11.00;6.93;;;13.40;99.90;;;;;;5036621;28;20028;-80
2023/09/01 06:20:54;;;;;;;9.93;6.15;;;13.60;99.90;;;;;;5036064;28;20025;-80
2023/09/01 06:23:20;;;;;;;14.20;7.75;;;13.60;99.90;;;;;;5035195;28;20018;-79
2023/09/01 06:25:46;;;;;;;13.27;6.80;;;13.70;99.90;;;;;;5034509;28;20030;-79
2023/09/01 06:28:12;;;;;;;11.50;5.82;;;13.90;99.90;;;;;;5038609;28;20029;-79
2023/09/01 06:30:40;;;;;;;10.75;6.68;;;14.00;99.90;;;;;;5028473;28;20036;-79
2023/09/01 06:33:07;;;;;;;8.93;7.18;;;14.20;99.90;;;;;;5032972;28;20032;-78
2023/09/01 06:35:33;;;;;;;8.68;6.15;;;14.20;99.90;;;;;;5036042;28;20368;-78
2023/09/01 06:38:01;;;;;;;12.90;7.68;;;14.40;99.90;;;;;;5044097;28;20041;-78
2023/09/01 06:40:26;;;;;;;10.07;5.53;;;14.50;99.90;;;;;;5036472;28;20105;-78
2023/09/01 06:42:52;;;;;;;8.90;5.80;;;14.60;99.90;;;;;;5031897;28;20149;-78
2023/09/01 06:45:17;;;;;;;8.73;5.90;;;14.70;99.90;;;;;;5048633;28;20029;-78
2023/09/01 06:47:43;;;;;;;9.25;4.93;;;14.80;99.90;;;;;;5030730;28;20071;-79
2023/09/01 06:50:09;;;;;;;7.30;4.90;;;14.90;99.90;;;;;;5030450;28;20018;-79
2023/09/01 06:52:35;;;;;;;5.85;4.93;;;15.00;99.90;;;;;;5028960;28;20022;-79
2023/09/01 06:55:00;;;;;;;7.78;5.03;;;15.20;99.90;;;;;;5021663;28;20580;-78
2023/09/01 06:57:26;;;;;;;9.70;5.03;;;15.40;99.90;;;;;;5022931;28;20645;-78
2023/09/01 06:59:51;;;;;;;7.28;4.45;;;15.50;99.90;;;;;;5038014;28;20021;-78
2023/09/01 07:02:17;;;;;;;5.82;4.53;;;15.50;99.90;;;;;;5025813;28;20688;-78
2023/09/01 07:04:42;;;;;;;7.53;4.63;;;15.60;99.90;;;;;;5027235;28;20051;-78
2023/09/01 07:07:08;;;;;;;8.57;4.90;;;15.80;99.90;;;;;;5031141;28;20057;-78
2023/09/01 07:09:34;;;;;;;7.35;5.00;;;15.70;99.90;;;;;;5027895;28;20055;-78
2023/09/01 07:12:00;;;;;;;9.32;5.00;;;15.90;99.90;;;;;;5033388;28;20033;-79
2023/09/01 07:14:25;;;;;;;7.57;4.65;;;16.00;99.90;;;;;;5034089;28;20132;-79
2023/09/01 07:16:51;;;;;;;9.60;4.68;;;16.00;99.90;;;;;;5037297;28;20025;-78
2023/09/01 07:19:16;;;;;;;6.57;4.50;;;16.10;99.90;;;;;;5031835;28;20053;-78
2023/09/01 07:21:42;;;;;;;5.05;3.65;;;16.20;99.90;;;;;;5042218;28;20025;-78
2023/09/01 07:24:08;;;;;;;6.00;4.50;;;16.10;99.90;;;;;;5029279;28;20539;-79
2023/09/01 07:26:33;;;;;;;7.55;5.10;;;16.20;99.90;;;;;;5029157;28;20032;-78
2023/09/01 07:28:59;;;;;;;6.93;4.40;;;16.30;99.90;;;;;;5029184;28;20125;-79
2023/09/01 07:31:24;;;;;;;6.25;4.45;;;16.20;99.90;;;;;;5012083;28;20037;-79
2023/09/01 07:33:50;;;;;;;12.13;4.20;;;16.50;99.90;;;;;;5024243;28;20157;-79
2023/09/01 07:36:15;;;;;;;9.30;4.25;;;16.50;99.90;;;;;;5030223;28;20112;-78
2023/09/01 07:38:41;;;;;;;7.07;4.10;;;16.70;99.90;;;;;;5042174;28;20389;-78
2023/09/01 07:41:08;;;;;;;4.20;3.22;;;16.90;99.90;;;;;;5037189;28;20025;-78
2023/09/01 07:43:34;;;;;;;4.70;2.85;;;16.90;99.90;;;;;;5035248;28;20029;-79
2023/09/01 07:46:00;;;;;;;6.43;3.92;;;17.10;99.90;;;;;;5018033;28;20082;-78
2023/09/01 07:48:26;;;;;;;5.65;3.47;;;17.20;99.90;;;;;;5043055;28;20029;-78
2023/09/01 07:50:52;;;;;;;5.85;2.70;;;17.40;99.90;;;;;;5035641;28;20582;-78
2023/09/01 07:53:17;;;;;;;2.97;2.47;;;17.40;93.90;;;;;;5047623;28;20058;-78
2023/09/01 07:55:43;;;;;;;6.07;3.40;;;17.70;96.70;;;;;;5024446;28;20125;-78
2023/09/01 07:58:09;;;;;;;4.50;2.70;;;17.60;88.70;;;;;;5027331;28;20060;-80
2023/09/01 08:00:37;;;;;;;9.48;3.83;;;17.70;86.50;;;;;;5028438;28;20021;-79
2023/09/01 08:03:03;;;;;;;6.57;2.60;;;17.90;91.10;;;;;;5029776;28;20105;-78
2023/09/01 08:05:28;;;;;;;2.65;2.33;;;18.00;88.50;;;;;;5028669;28;20059;-78
2023/09/01 08:07:54;;;;;;;3.95;2.63;;;18.00;85.20;;;;;;5028563;28;20025;-79
2023/09/01 08:10:20;;;;;;;4.68;2.67;;;18.20;83.70;;;;;;5030063;28;20398;-80
2023/09/01 08:12:45;;;;;;;5.35;2.65;;;18.30;83.80;;;;;;5030695;28;20059;-78
2023/09/01 08:15:11;;;;;;;5.85;2.95;;;18.30;79.80;;;;;;5029024;28;20017;-78
2023/09/01 08:17:37;;;;;;;3.90;2.45;;;18.30;79.10;;;;;;5029337;28;20039;-78
2023/09/01 08:20:04;;;;;;;2.85;2.25;;;18.40;78.10;;;;;;5030391;28;20025;-78
2023/09/01 08:22:31;;;;;;;4.22;2.80;;;18.50;79.80;;;;;;5029720;28;20033;-79
2023/09/01 08:24:57;;;;;;;5.35;2.22;;;18.60;77.00;;;;;;5028825;28;20388;-78
2023/09/01 08:27:22;;;;;;;4.53;2.72;;;18.60;75.50;;;;;;5028489;28;20048;-78
2023/09/01 08:29:48;;;;;;;2.85;2.58;;;18.80;77.60;;;;;;5028139;28;20026;-78
2023/09/01 08:32:14;;;;;;;7.25;2.78;;;19.10;76.80;;;;;;5028386;28;20040;-78
2023/09/01 08:34:39;;;;;;;5.20;2.47;;;19.00;74.00;;;;;;5030298;28;20434;-79
2023/09/01 08:37:05;;;;;;;4.13;2.35;;;19.00;71.00;;;;;;5029469;28;20057;-78
2023/09/01 08:39:31;;;;;;;4.35;2.35;;;18.70;68.90;;;;;;5029516;28;20379;-80
2023/09/01 08:41:57;;;;;;;5.07;2.22;;;18.80;70.70;;;;;;5028264;28;20028;-79
2023/09/01 08:44:26;;;;;;;3.83;2.42;;;18.90;70.70;;;;;;5028203;28;20402;-80
2023/09/01 08:46:53;;;;;;;6.32;2.38;;;19.10;72.60;;;;;;5027273;28;20028;-78
2023/09/01 08:49:19;;;;;;;6.90;2.38;;;19.10;69.50;;;;;;5025014;28;20398;-79
2023/09/01 08:51:52;;;;;;;3.80;2.40;;;19.30;67.90;;;;;;5027089;28;20128;-78
2023/09/01 08:54:18;;;;;;;4.10;2.88;;;19.10;68.00;;;;;;5026748;28;20014;-79
2023/09/01 08:56:44;;;;;;;3.90;2.47;;;18.90;68.20;;;;;;5019174;28;20104;-79
2023/09/01 08:59:09;;;;;;;4.70;2.83;;;18.90;71.30;;;;;;5029121;28;20100;-77
2023/09/01 09:01:37;;;;;;;3.55;2.30;;;19.00;74.30;;;;;;5028111;28;20026;-77
2023/09/01 09:04:07;;;;;;;3.92;2.65;;;19.10;75.60;;;;;;5033163;28;20018;-76
2023/09/01 09:06:37;;;;;;;9.35;2.63;;;18.80;67.50;;;;;;5027963;28;20367;-77
2023/09/01 09:09:11;;;;;;;2.53;2.20;;;18.90;69.80;;;;;;5041958;28;20025;-76
2023/09/01 09:11:38;;;;;;;5.63;3.05;;;19.00;71.70;;;;;;5029240;28;20061;-78
2023/09/01 09:14:04;;;;;;;2.90;2.03;;;19.00;70.20;;;;;;5028866;28;20017;-76
2023/09/01 09:16:29;;;;;;;4.93;2.03;;;19.10;70.20;;;;;;5032652;28;20025;-76
2023/09/01 09:18:55;;;;;;;2.80;2.08;;;18.90;66.10;;;;;;5046643;28;20027;-78
2023/09/01 09:21:32;;;;;;;2.78;2.10;;;19.10;67.70;;;;;;5048242;28;20025;-78
2023/09/01 09:24:05;;;;;;;4.57;2.70;;;19.30;68.50;;;;;;5035525;28;20017;-76
2023/09/01 09:26:32;;;;;;;3.83;2.63;;;19.50;69.40;;;;;;5032198;28;20484;-77
2023/09/01 09:29:07;;;;;;;5.03;2.72;;;19.50;67.00;;;;;;5044736;28;20467;-78
2023/09/01 09:31:36;;;;;;;4.38;2.92;;;19.70;68.00;;;;;;5045940;28;20502;-79
2023/09/01 09:34:24;;;;;;;2.78;2.40;;;19.90;68.40;;;;;;5041450;28;20047;-79
2023/09/01 09:36:50;;;;;;;5.78;3.20;;;20.10;67.50;;;;;;5029883;28;20041;-78
2023/09/01 09:39:30;;;;;;;3.33;2.30;;;20.10;66.90;;;;;;5043172;28;20013;-79
2023/09/01 09:41:59;;;;;;;3.58;2.58;;;20.10;65.90;;;;;;5021541;28;20028;-77
2023/09/01 09:44:34;;;;;;;4.18;2.63;;;20.30;67.00;;;;;;5042624;28;20125;-78
2023/09/01 09:47:00;;;;;;;5.10;2.65;;;20.50;67.80;;;;;;5030810;28;20562;-80
2023/09/01 09:49:29;;;;;;;6.10;2.30;;;20.60;66.10;;;;;;5033064;28;20037;-78
2023/09/01 09:51:59;;;;;;;6.00;2.53;;;20.50;64.50;;;;;;5050398;28;20066;-78
2023/09/01 09:54:28;;;;;;;3.38;2.15;;;20.30;64.50;;;;;;5031132;28;20100;-79
2023/09/01 09:56:56;;;;;;;3.90;2.05;;;20.00;64.20;;;;;;5026171;28;20026;-79
2023/09/01 09:59:39;;;;;;;4.47;2.40;;;20.00;65.20;;;;;;5035494;28;20039;-77
2023/09/01 10:02:09;;;;;;;;;;;20.00;65.10;;;;;;5040459;28;20021;-78
2023/09/01 10:04:35;;;;;;;4.30;2.30;;;20.00;64.70;;;;;;5048477;28;19904;-80
2023/09/01 10:07:01;;;;;;;4.00;2.15;;;20.30;64.50;;;;;;5033501;28;20085;-79
2023/09/01 10:09:29;;;;;;;5.07;2.60;;;20.40;64.30;;;;;;5021421;28;20438;-79
2023/09/01 10:11:55;;;;;;;5.55;2.50;;;20.70;65.40;;;;;;5016538;28;20052;-79
2023/09/01 10:14:23;;;;;;;5.10;2.75;;;20.70;62.00;;;;;;5030672;28;20440;-85
2023/09/01 10:16:49;;;;;;;8.25;3.28;;;20.80;62.40;;;;;;5039994;28;20026;-84
2023/09/01 10:19:19;;;;;;;4.38;2.50;;;20.80;62.90;;;;;;5039407;28;20546;-85
2023/09/01 10:21:45;;;;;;;3.15;2.15;;;20.80;62.50;;;;;;5029415;28;20101;-85
2023/09/01 10:24:15;;;;;;;3.40;2.17;;;20.70;62.20;;;;;;5030193;28;20474;-85
2023/09/01 10:26:42;;;;;;;5.78;2.08;;;20.80;62.00;;;;;;5017426;28;20490;-83
2023/09/01 10:29:07;;;;;;;5.78;2.55;;;20.40;61.40;;;;;;5028436;28;20062;-84
2023/09/01 10:31:36;;;;;;;3.10;2.05;;;20.20;62.40;;;;;;5029812;28;20417;-84
2023/09/01 10:34:13;;;;;;;7.47;2.20;;;20.00;63.30;;;;;;5027900;28;20026;-82
2023/09/01 10:36:43;;;;;;;4.40;2.22;;;19.80;61.50;;;;;;5022915;28;20045;-83
2023/09/01 10:39:18;;;;;;;5.57;3.13;;;19.80;62.90;;;;;;5040973;28;20029;-84
2023/09/01 10:41:57;;;;;;;4.10;2.00;;;19.90;65.80;;;;;;5043510;28;20059;-78
2023/09/01 10:44:26;;;;;;;4.97;2.10;;;20.00;65.70;;;;;;5018315;28;20138;-78
2023/09/01 10:46:51;;;;;;;6.90;2.97;;;20.30;65.00;;;;;;5042060;28;20074;-83
2023/09/01 10:49:17;;;;;;;5.00;2.22;;;20.60;64.70;;;;;;5043989;28;20017;-83
2023/09/01 10:51:46;;;;;;;5.22;2.55;;;20.60;62.70;;;;;;5028336;28;20041;-82
2023/09/01 10:54:14;;;;;;;7.00;2.60;;;20.70;64.10;;;;;;5043481;28;20113;-84
2023/09/01 10:57:04;;;;;;;4.32;2.20;;;20.50;62.20;;;;;;5020008;28;20108;-83
2023/09/01 10:59:32;;;;;;;4.00;2.25;;;20.30;62.50;;;;;;5046199;28;20021;-78
2023/09/01 11:02:18;;;;;;;5.20;2.28;;;20.40;64.30;;;;;;5039362;28;20093;-78
2023/09/01 11:04:45;;;;;;;8.75;2.90;;;20.60;63.70;;;;;;5030074;28;20021;-77
2023/09/01 11:07:12;;;;;;;4.68;2.20;;;20.60;64.10;;;;;;5031316;28;20044;-83
2023/09/01 11:09:42;;;;;;;4.43;2.53;;;20.60;64.20;;;;;;5036421;28;20029;-83
2023/09/01 11:12:08;;;;;;;5.13;2.42;;;20.60;62.90;;;;;;5033163;28;20037;-84
2023/09/01 11:14:36;;;;;;;4.22;2.63;;;20.60;63.20;;;;;;5028783;28;20018;-83
2023/09/01 11:17:03;;;;;;;6.78;2.65;;;20.60;63.70;;;;;;5032925;28;20013;-83
2023/09/01 11:19:32;;;;;;;5.63;2.90;;;20.50;63.20;;;;;;5032459;28;20070;-77
2023/09/01 11:21:58;;;;;;;5.97;2.65;;;20.60;63.90;;;;;;5033272;28;20486;-83
2023/09/01 11:24:24;;;;;;;6.97;3.28;;;20.70;64.60;;;;;;5029029;28;20074;-83
2023/09/01 11:26:50;;;;;;;5.75;2.40;;;20.80;65.00;;;;;;5028313;28;20433;-84
2023/09/01 11:29:16;;;;;;;5.30;2.70;;;20.60;63.60;;;;;;5026897;28;20021;-84
2023/09/01 11:31:42;;;;;;;4.80;2.90;;;20.50;64.90;;;;;;5018444;28;20550;-84
2023/09/01 11:34:09;;;;;;;5.97;3.15;;;20.30;64.10;;;;;;5016640;28;20033;-84
2023/09/01 11:36:45;;;;;;;7.32;2.85;;;20.20;65.50;;;;;;5015040;28;20056;-84
2023/09/01 11:39:11;;;;;;;6.15;2.65;;;20.20;65.90;;;;;;5021133;28;20022;-84
2023/09/01 11:41:37;;;;;;;6.50;3.20;;;20.30;65.50;;;;;;5010438;28;20532;-84
2023/09/01 11:44:03;;;;;;;6.18;2.63;;;20.20;65.90;;;;;;5015430;28;20029;-84
2023/09/01 11:46:34;;;;;;;7.65;3.20;;;20.20;66.10;;;;;;5010270;28;20418;-84
2023/09/01 11:49:00;;;;;;;4.80;3.20;;;20.20;66.30;;;;;;5017906;28;20459;-84
2023/09/01 11:51:40;;;;;;;6.90;3.17;;;20.20;67.30;;;;;;5015167;28;20839;-84
2023/09/01 11:54:06;;;;;;;8.25;3.75;;;20.40;68.10;;;;;;5020370;28;20078;-84
2023/09/01 11:56:31;;;;;;;4.10;2.72;;;20.50;66.60;;;;;;5022602;28;20455;-84
2023/09/01 11:58:59;;;;;;;4.82;2.90;;;20.40;66.40;;;;;;5020289;28;20026;-83
2023/09/01 12:01:32;;;;;;;4.03;2.88;;;20.30;66.20;;;;;;5015331;28;20033;-84
2023/09/01 12:04:05;;;;;;;3.78;2.53;;;20.30;65.80;;;;;;5028551;28;20023;-84
2023/09/01 12:06:31;;;;;;;3.88;2.58;;;20.20;67.60;;;;;;5027864;28;20021;-84
2023/09/01 12:09:16;;;;;;;5.78;2.63;;;20.30;67.70;;;;;;5019399;28;20033;-84
2023/09/01 12:12:02;;;;;;;5.68;3.50;;;20.20;68.10;;;;;;5010197;28;20455;-84
2023/09/01 12:14:30;;;;;;;6.05;2.90;;;20.20;68.50;;;;;;5019892;28;20029;-84
2023/09/01 12:16:56;;;;;;;3.88;2.28;;;20.10;68.40;;;;;;5011678;28;20054;-84
2023/09/01 12:19:24;;;;;;;3.17;2.20;;;20.20;69.10;;;;;;5009171;28;20059;-83
2023/09/01 12:21:57;;;;;;;5.20;2.55;;;20.30;68.60;;;;;;5008397;28;20053;-84
2023/09/01 12:24:23;;;;;;;5.38;2.72;;;20.50;69.90;;;;;;5009785;28;20064;-84
2023/09/01 12:26:49;;;;;;;4.47;2.58;;;20.60;68.00;;;;;;5040689;28;20049;-83
2023/09/01 12:29:15;;;;;;;3.80;2.38;;;20.70;66.50;;;;;;5014620;28;20372;-83
2023/09/01 12:31:42;;;;;;;4.20;2.30;;;20.50;65.40;;;;;;5019688;28;20051;-84
2023/09/01 12:34:08;;;;;;;2.92;2.20;;;20.50;66.10;;;;;;5009319;28;20033;-84
2023/09/01 12:36:33;;;;;;;3.30;2.17;;;20.70;66.40;;;;;;5022748;28;20049;-83
2023/09/01 12:38:59;;;;;;;4.93;2.95;;;20.90;66.80;;;;;;5016247;28;20018;-84
2023/09/01 12:41:25;;;;;;;7.35;3.10;;;21.10;68.10;;;;;;5012099;28;20526;-84
2023/09/01 12:43:50;;;;;;;5.40;2.67;;;21.10;65.40;;;;;;5011403;28;20030;-84
2023/09/01 12:46:16;;;;;;;3.40;2.42;;;21.10;65.00;;;;;;5027375;28;20490;-85